< < Back
Terminal Aerodrome Forecast


Current Version              Previous Versions:   1  2  3  4  5  6  7  8  9  

Terminal Aerodrome Forecast

990
FTUS42 KGSP 211730
TAFGSP
TAF
KGSP 211730Z 2118/2218 02006KT P6SM FEW040
     FM212100 33010G18KT P6SM SCT040
     FM220100 33009KT P6SM FEW250
     FM220900 35003KT P6SM FEW040
     FM221200 35005KT P6SM SKC=

Latest METAR

293
SAUS70 KWBC 221600 RRE
MTRGSP
METAR KGSP 221553Z 04007KT 10SM CLR 21/06 A3022 RMK AO2 SLP227
T02060061


USA.gov is the U.S. government's official web portal to all federal, state and local government web resources and services.